createdAt,value
2018-10-18T00:02:19.688Z,16.20
2018-10-18T00:04:50.005Z,16.10
2018-10-18T00:07:19.390Z,16.10
2018-10-18T00:09:48.833Z,16.10
2018-10-18T00:12:18.157Z,16.10
2018-10-18T00:14:48.141Z,16.00
2018-10-18T00:17:22.787Z,16.00
2018-10-18T00:19:52.206Z,16.00
2018-10-18T00:22:21.685Z,15.90
2018-10-18T00:24:51.307Z,15.90
2018-10-18T00:27:20.665Z,15.90
2018-10-18T00:29:50.113Z,15.90
2018-10-18T00:32:19.713Z,15.90
2018-10-18T00:34:49.283Z,15.80
2018-10-18T00:37:18.699Z,15.80
2018-10-18T00:39:48.062Z,15.80
2018-10-18T00:42:17.552Z,15.80
2018-10-18T00:44:46.804Z,15.80
2018-10-18T00:47:16.200Z,15.80
2018-10-18T00:49:45.865Z,15.80
2018-10-18T00:52:15.290Z,15.80
2018-10-18T00:54:44.759Z,15.70
2018-10-18T00:57:14.380Z,15.70
2018-10-18T00:59:43.835Z,15.70
2018-10-18T01:02:13.389Z,15.70
2018-10-18T01:04:42.697Z,15.70
2018-10-18T01:07:12.033Z,15.70
2018-10-18T01:09:41.460Z,15.70
2018-10-18T01:12:11.134Z,15.60
2018-10-18T01:14:40.365Z,15.60
2018-10-18T01:17:09.694Z,15.60
2018-10-18T01:19:39.277Z,15.50
2018-10-18T01:22:08.758Z,15.50
2018-10-18T01:24:38.202Z,15.50
2018-10-18T01:27:07.868Z,15.50
2018-10-18T01:29:37.189Z,15.50
2018-10-18T01:32:07.519Z,15.50
2018-10-18T01:34:37.533Z,15.50
2018-10-18T01:37:07.061Z,15.40
2018-10-18T01:39:36.514Z,15.40
2018-10-18T01:42:07.108Z,15.40
2018-10-18T01:44:36.397Z,15.40
2018-10-18T01:47:06.051Z,15.40
2018-10-18T01:49:36.243Z,15.40
2018-10-18T01:52:05.945Z,15.30
2018-10-18T01:54:35.381Z,15.40
2018-10-18T01:57:05.149Z,15.40
2018-10-18T01:59:34.673Z,15.30
2018-10-18T02:02:04.145Z,15.30
2018-10-18T02:04:33.460Z,15.30
2018-10-18T02:07:02.899Z,15.30
2018-10-18T02:09:32.265Z,15.30
2018-10-18T02:12:01.660Z,15.20
2018-10-18T02:14:31.120Z,15.20
2018-10-18T02:17:00.536Z,15.20
2018-10-18T02:19:30.528Z,15.20
2018-10-18T02:21:59.854Z,15.20
2018-10-18T02:24:30.344Z,15.20
2018-10-18T02:26:59.801Z,15.20
2018-10-18T02:29:29.212Z,15.20
2018-10-18T02:31:58.589Z,15.20
2018-10-18T02:34:27.964Z,15.20
2018-10-18T02:36:57.400Z,15.20
2018-10-18T02:39:26.881Z,15.20
2018-10-18T02:41:56.384Z,15.10
2018-10-18T02:44:25.986Z,15.10
2018-10-18T02:46:55.405Z,15.10
2018-10-18T02:49:24.802Z,15.10
2018-10-18T02:51:54.148Z,15.10
2018-10-18T02:54:23.581Z,15.10
2018-10-18T02:56:52.926Z,15.10
2018-10-18T02:59:22.360Z,15.10
2018-10-18T03:01:51.813Z,15.10
2018-10-18T03:04:21.298Z,15.00
2018-10-18T03:06:50.729Z,15.00
2018-10-18T03:09:20.071Z,15.00
2018-10-18T03:11:49.510Z,15.00
2018-10-18T03:14:18.992Z,15.00
2018-10-18T03:16:48.891Z,15.00
2018-10-18T03:19:18.338Z,15.00
2018-10-18T03:21:47.760Z,14.90
2018-10-18T03:24:17.166Z,14.90
2018-10-18T03:26:46.528Z,14.90
2018-10-18T03:29:16.614Z,14.90
2018-10-18T03:31:45.953Z,14.90
2018-10-18T03:34:15.443Z,14.90
2018-10-18T03:36:44.775Z,14.90
2018-10-18T03:39:14.127Z,14.90
2018-10-18T03:41:43.564Z,14.80
2018-10-18T03:44:13.954Z,14.80
2018-10-18T03:46:43.443Z,14.80
2018-10-18T03:49:12.857Z,14.80
2018-10-18T03:51:42.183Z,14.80
2018-10-18T03:54:11.805Z,14.70
2018-10-18T03:56:41.060Z,14.70
2018-10-18T03:59:10.487Z,14.70
2018-10-18T04:01:39.968Z,14.70
2018-10-18T04:04:09.339Z,14.70
2018-10-18T04:06:38.931Z,14.70
2018-10-18T04:09:10.105Z,14.70
2018-10-18T04:11:40.600Z,14.70
2018-10-18T04:14:10.125Z,14.70
2018-10-18T04:16:40.318Z,14.70
2018-10-18T04:19:09.760Z,14.70
2018-10-18T04:21:39.253Z,14.70
2018-10-18T04:24:09.274Z,14.70
2018-10-18T04:26:38.784Z,14.70
2018-10-18T04:29:08.146Z,14.70
2018-10-18T04:31:37.465Z,14.60
2018-10-18T04:34:07.002Z,14.60
2018-10-18T04:36:36.504Z,14.60
2018-10-18T04:39:10.195Z,14.60
2018-10-18T04:41:39.606Z,14.60
2018-10-18T04:44:09.030Z,14.60
2018-10-18T04:46:38.655Z,14.60
2018-10-18T04:49:08.166Z,14.50
2018-10-18T04:51:37.514Z,14.50
2018-10-18T04:54:06.947Z,14.50
2018-10-18T04:56:36.899Z,14.50
2018-10-18T04:59:06.461Z,14.50
2018-10-18T05:01:36.876Z,14.50
2018-10-18T05:04:06.669Z,14.50
2018-10-18T05:06:36.588Z,14.50
2018-10-18T05:09:08.071Z,14.40
2018-10-18T05:11:37.579Z,14.40
2018-10-18T05:14:07.057Z,14.40
2018-10-18T05:16:36.409Z,14.50
2018-10-18T05:19:06.254Z,14.40
2018-10-18T05:21:35.662Z,14.40
2018-10-18T05:24:05.731Z,14.40
2018-10-18T05:26:35.180Z,14.40
2018-10-18T05:29:04.669Z,14.40
2018-10-18T05:31:34.148Z,14.40
2018-10-18T05:34:03.503Z,14.40
2018-10-18T05:36:33.122Z,14.40
2018-10-18T05:39:05.174Z,14.30
2018-10-18T05:41:34.597Z,14.30
2018-10-18T05:44:05.701Z,14.30
2018-10-18T05:46:35.190Z,14.30
2018-10-18T05:49:04.610Z,14.30
2018-10-18T05:51:34.012Z,14.30
2018-10-18T05:54:03.706Z,14.30
2018-10-18T05:56:33.061Z,14.30
2018-10-18T05:59:02.512Z,14.30
2018-10-18T06:01:31.978Z,14.30
2018-10-18T06:04:01.403Z,14.30
2018-10-18T06:06:30.813Z,14.20
2018-10-18T06:09:00.168Z,14.20
2018-10-18T06:11:31.289Z,14.20
2018-10-18T06:14:00.764Z,14.20
2018-10-18T06:16:30.173Z,14.20
2018-10-18T06:18:59.550Z,14.20
2018-10-18T06:21:29.001Z,14.20
2018-10-18T06:23:58.354Z,14.20
2018-10-18T06:26:27.793Z,14.20
2018-10-18T06:28:57.893Z,14.20
2018-10-18T06:31:27.413Z,14.20
2018-10-18T06:33:56.943Z,14.20
2018-10-18T06:36:26.349Z,14.20
2018-10-18T06:38:55.854Z,14.20
2018-10-18T06:41:25.260Z,14.20
2018-10-18T06:43:54.725Z,14.20
2018-10-18T06:46:24.133Z,14.20
2018-10-18T06:48:53.555Z,14.30
2018-10-18T06:51:22.881Z,14.30
2018-10-18T06:53:52.494Z,14.30
2018-10-18T06:56:22.035Z,14.30
2018-10-18T06:58:51.523Z,14.30
2018-10-18T07:01:20.920Z,14.30
2018-10-18T07:03:50.342Z,14.40
2018-10-18T07:06:19.779Z,14.40
2018-10-18T07:08:49.188Z,14.40
2018-10-18T07:11:18.576Z,14.50
2018-10-18T07:13:48.423Z,14.50
2018-10-18T07:16:17.778Z,14.50
2018-10-18T07:18:47.205Z,14.60
2018-10-18T07:21:16.747Z,14.60
2018-10-18T07:23:46.212Z,14.70
2018-10-18T07:26:15.712Z,14.70
2018-10-18T07:28:45.093Z,14.70
2018-10-18T07:31:14.454Z,14.80
2018-10-18T07:33:43.858Z,14.80
2018-10-18T07:36:13.385Z,14.80
2018-10-18T07:38:42.853Z,14.90
2018-10-18T07:41:12.408Z,14.90
2018-10-18T07:43:41.861Z,14.90
2018-10-18T07:46:11.399Z,15.00
2018-10-18T07:48:40.895Z,15.00
2018-10-18T07:51:10.282Z,15.10
2018-10-18T07:53:39.763Z,15.10
2018-10-18T07:56:09.131Z,15.20
2018-10-18T07:58:39.121Z,15.20
2018-10-18T08:01:08.667Z,15.30
2018-10-18T08:03:38.109Z,15.40
2018-10-18T08:06:07.566Z,15.40
2018-10-18T08:08:37.075Z,15.50
2018-10-18T08:11:06.959Z,15.60
2018-10-18T08:13:36.885Z,15.70
2018-10-18T08:16:06.714Z,15.70
2018-10-18T08:18:36.272Z,15.80
2018-10-18T08:21:06.368Z,15.80
2018-10-18T08:23:35.738Z,15.90
2018-10-18T08:26:05.360Z,16.00
2018-10-18T08:28:34.803Z,16.00
2018-10-18T08:31:04.343Z,16.10
2018-10-18T08:33:33.717Z,16.10
2018-10-18T08:36:03.233Z,16.20
2018-10-18T08:38:32.709Z,16.30
2018-10-18T08:41:02.170Z,16.30
2018-10-18T08:43:31.575Z,16.40
2018-10-18T08:46:01.027Z,16.40
2018-10-18T08:48:30.570Z,16.40
2018-10-18T08:50:59.932Z,16.50
2018-10-18T08:53:29.418Z,16.50
2018-10-18T08:55:58.973Z,16.60
2018-10-18T08:58:28.460Z,16.60
2018-10-18T09:00:57.907Z,16.60
2018-10-18T09:03:27.397Z,16.70
2018-10-18T09:05:56.912Z,16.70
2018-10-18T09:08:27.188Z,16.80
2018-10-18T09:10:56.649Z,16.80
2018-10-18T09:13:26.233Z,16.80
2018-10-18T09:15:55.726Z,16.80
2018-10-18T09:18:25.245Z,16.90
2018-10-18T09:20:54.612Z,16.90
2018-10-18T09:23:24.286Z,17.00
2018-10-18T09:25:53.896Z,17.00
2018-10-18T09:28:23.393Z,17.00
2018-10-18T09:30:52.811Z,17.00
2018-10-18T09:33:22.303Z,17.10
2018-10-18T09:35:51.807Z,17.10
2018-10-18T09:38:21.317Z,17.10
2018-10-18T09:40:57.035Z,17.20
2018-10-18T09:43:26.498Z,17.20
2018-10-18T09:45:56.014Z,17.20
2018-10-18T09:48:25.639Z,17.30
2018-10-18T09:50:55.121Z,17.30
2018-10-18T09:53:24.621Z,17.30
2018-10-18T09:55:54.029Z,17.40
2018-10-18T09:58:23.541Z,17.40
2018-10-18T10:00:58.332Z,17.40
2018-10-18T10:03:27.774Z,17.50
2018-10-18T10:05:57.292Z,17.50
2018-10-18T10:08:26.686Z,17.50
2018-10-18T10:10:56.223Z,17.50
2018-10-18T10:13:25.825Z,17.60
2018-10-18T10:15:55.109Z,17.60
2018-10-18T10:18:24.613Z,17.60
2018-10-18T10:20:54.282Z,17.70
2018-10-18T10:23:23.753Z,17.70
2018-10-18T10:25:53.156Z,17.70
2018-10-18T10:28:22.637Z,17.80
2018-10-18T10:30:52.099Z,17.80
2018-10-18T10:33:21.605Z,17.80
2018-10-18T10:35:51.230Z,17.80
2018-10-18T10:38:20.785Z,17.90
2018-10-18T10:40:50.320Z,17.90
2018-10-18T10:43:19.761Z,17.90
2018-10-18T10:45:49.341Z,18.00
2018-10-18T10:48:18.875Z,18.00
2018-10-18T10:50:48.281Z,18.00
2018-10-18T10:53:17.733Z,18.00
2018-10-18T10:55:47.162Z,18.10
2018-10-18T10:58:16.757Z,18.10
2018-10-18T11:01:22.631Z,18.10
2018-10-18T11:03:53.595Z,18.10
2018-10-18T11:06:23.627Z,18.10
2018-10-18T11:08:53.295Z,18.20
2018-10-18T11:11:24.208Z,18.20
2018-10-18T11:13:53.750Z,18.20
2018-10-18T11:16:23.347Z,18.30
2018-10-18T11:18:52.766Z,18.30
2018-10-18T11:21:22.231Z,18.30
2018-10-18T11:23:51.664Z,18.40
2018-10-18T11:26:21.336Z,18.40
2018-10-18T11:28:50.676Z,18.40
2018-10-18T11:31:20.597Z,18.50
2018-10-18T11:33:50.001Z,18.50
2018-10-18T11:36:19.446Z,18.50
2018-10-18T11:38:49.385Z,18.50
2018-10-18T11:41:18.813Z,18.60
2018-10-18T11:43:48.279Z,18.60
2018-10-18T11:46:17.639Z,18.60
2018-10-18T11:48:47.050Z,18.60
2018-10-18T11:51:16.482Z,18.70
2018-10-18T11:53:45.889Z,18.70
2018-10-18T11:56:15.378Z,18.70
2018-10-18T11:58:44.785Z,18.70
2018-10-18T12:01:14.339Z,18.80
2018-10-18T12:03:43.820Z,18.80
2018-10-18T12:06:13.262Z,18.80
2018-10-18T12:08:42.724Z,18.80
2018-10-18T12:11:12.397Z,18.80
2018-10-18T12:13:41.697Z,18.90
2018-10-18T12:16:11.160Z,18.90
2018-10-18T12:18:40.557Z,18.90
2018-10-18T12:21:09.886Z,19.00
2018-10-18T12:23:39.376Z,19.00
2018-10-18T12:26:08.892Z,19.00
2018-10-18T12:28:38.286Z,19.00
2018-10-18T12:31:07.786Z,19.00
2018-10-18T12:33:40.098Z,19.10
2018-10-18T12:36:09.465Z,19.10
2018-10-18T12:38:38.880Z,19.10
2018-10-18T12:41:08.392Z,19.10
2018-10-18T12:43:37.799Z,19.20
2018-10-18T12:46:07.318Z,19.20
2018-10-18T12:48:36.758Z,19.20
2018-10-18T12:51:06.217Z,19.20
2018-10-18T12:53:35.859Z,19.20
2018-10-18T12:56:05.999Z,19.20
2018-10-18T12:58:35.345Z,19.20
2018-10-18T13:01:04.970Z,19.20
2018-10-18T13:03:34.473Z,19.20
2018-10-18T13:06:03.878Z,19.20
2018-10-18T13:08:33.304Z,19.20
2018-10-18T13:11:02.719Z,19.20
2018-10-18T13:13:32.513Z,19.20
2018-10-18T13:16:01.871Z,19.20
2018-10-18T13:18:31.573Z,19.20
2018-10-18T13:21:00.967Z,19.20
2018-10-18T13:23:30.320Z,19.20
2018-10-18T13:26:00.403Z,19.20
2018-10-18T13:28:29.940Z,19.20
2018-10-18T13:30:59.339Z,19.20
2018-10-18T13:33:28.788Z,19.20
2018-10-18T13:35:58.328Z,19.20
2018-10-18T13:38:27.808Z,19.20
2018-10-18T13:40:57.310Z,19.20
2018-10-18T13:43:26.722Z,19.20
2018-10-18T13:45:56.233Z,19.20
2018-10-18T13:48:25.612Z,19.20
2018-10-18T13:50:54.995Z,19.20
2018-10-18T13:53:24.537Z,19.20
2018-10-18T13:55:53.917Z,19.20
2018-10-18T13:58:23.383Z,19.20
2018-10-18T14:00:52.726Z,19.20
2018-10-18T14:03:22.179Z,19.20
2018-10-18T14:05:52.409Z,19.20
2018-10-18T14:08:21.862Z,19.20
2018-10-18T14:10:51.213Z,19.20
2018-10-18T14:13:20.564Z,19.20
2018-10-18T14:15:49.947Z,19.10
2018-10-18T14:18:19.481Z,19.10
2018-10-18T14:20:48.945Z,19.10
2018-10-18T14:23:18.440Z,19.10
2018-10-18T14:25:47.753Z,19.10
2018-10-18T14:28:17.302Z,19.00
2018-10-18T14:30:46.762Z,19.10
2018-10-18T14:33:16.097Z,19.10
2018-10-18T14:35:45.485Z,19.10
2018-10-18T14:38:15.033Z,19.10
2018-10-18T14:40:44.409Z,19.10
2018-10-18T14:43:13.840Z,19.10
2018-10-18T14:45:43.293Z,19.00
2018-10-18T14:48:12.745Z,19.00
2018-10-18T14:50:42.295Z,19.00
2018-10-18T14:53:11.849Z,19.00
2018-10-18T14:55:41.150Z,19.00
2018-10-18T14:58:10.520Z,19.10
2018-10-18T15:00:40.246Z,19.00
2018-10-18T15:03:09.677Z,19.10
2018-10-18T15:05:39.097Z,19.10
2018-10-18T15:08:08.570Z,19.10
2018-10-18T15:10:37.975Z,19.00
2018-10-18T15:13:07.577Z,19.00
2018-10-18T15:15:37.130Z,19.00
2018-10-18T15:18:06.654Z,19.00
2018-10-18T15:20:36.131Z,19.00
2018-10-18T15:23:05.582Z,19.00
2018-10-18T15:25:36.261Z,19.00
2018-10-18T15:28:05.861Z,18.90
2018-10-18T15:30:35.414Z,18.90
2018-10-18T15:33:04.919Z,18.90
2018-10-18T15:35:34.436Z,18.90
2018-10-18T15:38:04.022Z,18.90
2018-10-18T15:40:33.441Z,18.90
2018-10-18T15:43:03.306Z,18.90
2018-10-18T15:45:32.788Z,18.80
2018-10-18T15:48:02.292Z,18.80
2018-10-18T15:50:31.740Z,18.80
2018-10-18T15:53:01.234Z,18.80
2018-10-18T15:55:30.652Z,18.80
2018-10-18T15:58:00.118Z,18.70
2018-10-18T16:00:29.483Z,18.70
2018-10-18T16:02:58.939Z,18.70
2018-10-18T16:05:28.440Z,18.70
2018-10-18T16:07:57.990Z,18.70
2018-10-18T16:10:28.175Z,18.70
2018-10-18T16:12:57.580Z,18.60
2018-10-18T16:15:27.062Z,18.70
2018-10-18T16:17:56.503Z,18.60
2018-10-18T16:20:26.112Z,18.60
2018-10-18T16:22:55.534Z,18.60
2018-10-18T16:25:24.908Z,18.60
2018-10-18T16:27:54.524Z,18.50
2018-10-18T16:30:23.925Z,18.50
2018-10-18T16:32:53.358Z,18.50
2018-10-18T16:35:23.383Z,18.50
2018-10-18T16:37:53.544Z,18.50
2018-10-18T16:40:23.218Z,18.60
2018-10-18T16:42:53.432Z,18.50
2018-10-18T16:45:22.820Z,18.50
2018-10-18T16:47:52.721Z,18.50
2018-10-18T16:50:22.157Z,18.50
2018-10-18T16:52:51.577Z,18.50
2018-10-18T16:55:21.081Z,18.60
2018-10-18T16:57:50.528Z,18.60
2018-10-18T17:00:20.270Z,18.50
2018-10-18T17:02:49.689Z,18.50
2018-10-18T17:05:19.090Z,18.50
2018-10-18T17:07:48.521Z,18.50
2018-10-18T17:10:18.044Z,18.50
2018-10-18T17:12:47.422Z,18.50
2018-10-18T17:15:16.796Z,18.50
2018-10-18T17:17:46.579Z,18.50
2018-10-18T17:20:16.194Z,18.50
2018-10-18T17:22:45.580Z,18.50
2018-10-18T17:25:16.104Z,18.50
2018-10-18T17:27:45.702Z,18.50
2018-10-18T17:30:15.411Z,18.50
2018-10-18T17:32:44.781Z,18.50
2018-10-18T17:35:14.165Z,18.50
2018-10-18T17:37:43.579Z,18.50
2018-10-18T17:40:13.793Z,18.50
2018-10-18T17:42:44.116Z,18.40
2018-10-18T17:45:13.836Z,18.40
2018-10-18T17:47:43.275Z,18.40
2018-10-18T17:50:12.830Z,18.50
2018-10-18T17:52:42.320Z,18.40
2018-10-18T17:55:11.743Z,18.40
2018-10-18T17:57:41.238Z,18.40
2018-10-18T18:00:12.746Z,18.40
2018-10-18T18:02:42.342Z,18.40
2018-10-18T18:05:12.793Z,18.40
2018-10-18T18:07:42.375Z,18.50
2018-10-18T18:10:15.200Z,18.40
2018-10-18T18:12:44.880Z,18.50
2018-10-18T18:15:14.341Z,18.50
2018-10-18T18:17:43.773Z,18.40
2018-10-18T18:20:13.404Z,18.40
2018-10-18T18:22:42.798Z,18.40
2018-10-18T18:25:12.887Z,18.40
2018-10-18T18:27:43.481Z,18.40
2018-10-18T18:30:14.308Z,18.40
2018-10-18T18:32:44.231Z,18.40
2018-10-18T18:35:13.931Z,18.40
2018-10-18T18:37:43.468Z,18.40
2018-10-18T18:40:13.040Z,18.40
2018-10-18T18:42:42.842Z,18.40
2018-10-18T18:45:18.368Z,18.40
2018-10-18T18:47:48.472Z,18.40
2018-10-18T18:50:17.934Z,18.40
2018-10-18T18:52:47.439Z,18.40
2018-10-18T18:55:16.939Z,18.40
2018-10-18T18:57:46.507Z,18.40
2018-10-18T19:00:16.065Z,18.40
2018-10-18T19:02:45.523Z,18.40
2018-10-18T19:05:14.996Z,18.40
2018-10-18T19:07:44.461Z,18.40
2018-10-18T19:10:13.844Z,18.40
2018-10-18T19:12:43.289Z,18.40
2018-10-18T19:15:13.417Z,18.40
2018-10-18T19:17:42.963Z,18.40
2018-10-18T19:20:12.438Z,18.40
2018-10-18T19:22:42.648Z,18.40
2018-10-18T19:25:12.085Z,18.40
2018-10-18T19:27:41.699Z,18.40
2018-10-18T19:30:12.010Z,18.40
2018-10-18T19:32:41.663Z,18.40
2018-10-18T19:35:11.137Z,18.40
2018-10-18T19:37:40.641Z,18.40
2018-10-18T19:40:10.562Z,18.40
2018-10-18T19:42:39.957Z,18.40
2018-10-18T19:45:10.365Z,18.40
2018-10-18T19:47:40.274Z,18.40
2018-10-18T19:50:10.087Z,18.40
2018-10-18T19:52:39.745Z,18.40
2018-10-18T19:55:09.898Z,18.40
2018-10-18T19:57:39.402Z,18.40
2018-10-18T20:00:09.826Z,18.40
2018-10-18T20:02:39.321Z,18.40
2018-10-18T20:05:10.002Z,18.40
2018-10-18T20:07:39.499Z,18.40
2018-10-18T20:10:09.378Z,18.40
2018-10-18T20:12:38.942Z,18.40
2018-10-18T20:15:08.819Z,18.40
2018-10-18T20:17:38.111Z,18.40
2018-10-18T20:20:09.736Z,18.40
2018-10-18T20:22:39.392Z,18.40
2018-10-18T20:25:09.642Z,18.40
2018-10-18T20:27:39.090Z,18.40
2018-10-18T20:30:13.026Z,18.40
2018-10-18T20:32:42.955Z,18.40
2018-10-18T20:35:12.437Z,18.40
2018-10-18T20:37:42.082Z,18.40
2018-10-18T20:40:13.864Z,18.40
2018-10-18T20:42:43.656Z,18.50
2018-10-18T20:45:18.314Z,18.40
2018-10-18T20:47:47.997Z,18.50
2018-10-18T20:50:17.354Z,18.40
2018-10-18T20:52:46.797Z,18.40
2018-10-18T20:55:17.132Z,18.50
2018-10-18T20:57:46.544Z,18.40
2018-10-18T21:00:15.990Z,18.50
2018-10-18T21:02:45.437Z,18.50
2018-10-18T21:05:14.859Z,18.40
2018-10-18T21:07:44.438Z,18.50
2018-10-18T21:10:13.959Z,18.50
2018-10-18T21:12:43.420Z,18.50
2018-10-18T21:15:13.446Z,18.50
2018-10-18T21:17:42.761Z,18.50
2018-10-18T21:20:12.238Z,18.50
2018-10-18T21:22:42.371Z,18.50
2018-10-18T21:25:11.800Z,18.40
2018-10-18T21:27:41.271Z,18.50
2018-10-18T21:30:10.866Z,18.50
2018-10-18T21:32:40.346Z,18.40
2018-10-18T21:35:09.847Z,18.50
2018-10-18T21:37:39.120Z,18.40
2018-10-18T21:40:08.552Z,18.50
2018-10-18T21:42:38.000Z,18.50
2018-10-18T21:45:07.574Z,18.50
2018-10-18T21:47:37.016Z,18.50
2018-10-18T21:50:06.924Z,18.50
2018-10-18T21:52:36.310Z,18.50
2018-10-18T21:55:06.381Z,18.50
2018-10-18T21:57:35.750Z,18.50
2018-10-18T22:00:07.010Z,18.50
2018-10-18T22:02:36.390Z,18.50
2018-10-18T22:05:06.180Z,18.50
2018-10-18T22:07:35.474Z,18.50
2018-10-18T22:10:05.370Z,18.50
2018-10-18T22:12:34.868Z,18.50
2018-10-18T22:15:05.001Z,18.50
2018-10-18T22:17:34.269Z,18.50
2018-10-18T22:20:03.942Z,18.50
2018-10-18T22:22:33.500Z,18.50
2018-10-18T22:25:03.130Z,18.50
2018-10-18T22:27:32.557Z,18.50
2018-10-18T22:30:02.187Z,18.50
2018-10-18T22:32:31.547Z,18.50
2018-10-18T22:35:00.994Z,18.50
2018-10-18T22:37:30.470Z,18.50
2018-10-18T22:39:59.965Z,18.50
2018-10-18T22:42:29.396Z,18.50
2018-10-18T22:44:58.741Z,18.50
2018-10-18T22:47:28.068Z,18.50
2018-10-18T22:49:57.594Z,18.50
2018-10-18T22:52:27.011Z,18.50
2018-10-18T22:54:56.343Z,18.50
2018-10-18T22:57:25.741Z,18.60
2018-10-18T22:59:55.141Z,18.60
2018-10-18T23:02:24.552Z,18.60
2018-10-18T23:04:54.014Z,18.60
2018-10-18T23:07:23.316Z,18.60
2018-10-18T23:09:52.851Z,18.60
2018-10-18T23:12:22.444Z,18.50
2018-10-18T23:14:51.887Z,18.50
2018-10-18T23:17:21.216Z,18.60
2018-10-18T23:19:50.659Z,18.50
2018-10-18T23:22:20.156Z,18.50
2018-10-18T23:24:49.549Z,18.50
2018-10-18T23:27:18.008Z,18.50
2018-10-18T23:29:47.321Z,18.50
2018-10-18T23:32:16.778Z,18.50
2018-10-18T23:34:46.184Z,18.50
2018-10-18T23:37:15.499Z,18.50
2018-10-18T23:39:44.895Z,18.50
2018-10-18T23:42:14.326Z,18.50
2018-10-18T23:44:43.704Z,18.50
2018-10-18T23:47:13.179Z,18.50
2018-10-18T23:49:42.541Z,18.50
2018-10-18T23:52:12.489Z,18.50
2018-10-18T23:54:42.049Z,18.50
2018-10-18T23:57:11.549Z,18.40
2018-10-18T23:59:40.861Z,18.40
